Time;durP1;ratioP1;P1;durP2;ratioP2;P2;SDS_P1;SDS_P2;PMS_P1;PMS_P2;Temp;Humidity;BMP_temperature;BMP_pressure;BME280_temperature;BME280_humidity;BME280_pressure;Samples;Min_cycle;Max_cycle;Signal;HPM_P1;HPM_P2
2021/11/25 00:01:46;;;;;;;37.72;20.85;;;;;;;2.43;100.00;95958.78;5054876;28;20087;-51
2021/11/25 00:04:14;;;;;;;38.30;21.23;;;;;;;2.01;100.00;95954.78;5056058;28;20128;-53
2021/11/25 00:06:43;;;;;;;34.80;20.17;;;;;;;2.29;100.00;95949.34;5061687;28;20549;-54
2021/11/25 00:09:11;;;;;;;36.55;21.20;;;;;;;2.56;100.00;95951.78;5058851;28;20087;-55
2021/11/25 00:11:40;;;;;;;36.70;20.83;;;;;;;2.95;100.00;95947.28;5058159;28;20065;-56
2021/11/25 00:14:08;;;;;;;34.53;19.80;;;;;;;3.27;100.00;95934.53;5057163;28;20076;-52
2021/11/25 00:16:37;;;;;;;32.38;19.55;;;;;;;3.19;100.00;95930.81;5059852;28;20049;-54
2021/11/25 00:19:06;;;;;;;33.40;20.05;;;;;;;3.29;100.00;95930.03;5059840;28;20056;-53
2021/11/25 00:21:35;;;;;;;34.95;20.60;;;;;;;3.64;100.00;95930.97;5057278;28;20091;-57
2021/11/25 00:24:05;;;;;;;39.33;20.70;;;;;;;3.51;100.00;95933.63;5056636;28;20040;-55
2021/11/25 00:26:34;;;;;;;35.70;20.95;;;;;;;3.80;100.00;95924.47;5056332;28;20055;-55
2021/11/25 00:29:04;;;;;;;37.55;22.00;;;;;;;3.32;100.00;95921.97;5057446;28;20566;-51
2021/11/25 00:31:32;;;;;;;39.20;21.63;;;;;;;3.68;100.00;95924.56;5055468;28;20324;-52
2021/11/25 00:34:01;;;;;;;39.67;22.55;;;;;;;3.29;100.00;95921.38;5061880;28;20079;-56
2021/11/25 00:36:31;;;;;;;38.53;21.30;;;;;;;3.01;100.00;95919.97;5062202;28;20076;-52
2021/11/25 00:38:59;;;;;;;37.70;22.70;;;;;;;2.44;100.00;95918.81;5062038;28;20266;-57
2021/11/25 00:41:28;;;;;;;38.13;20.98;;;;;;;2.64;100.00;95908.78;5068715;28;20076;-57
2021/11/25 00:43:56;;;;;;;38.55;21.83;;;;;;;2.57;100.00;95900.56;5073309;28;20527;-56
2021/11/25 00:46:24;;;;;;;39.30;21.23;;;;;;;2.79;100.00;95907.69;5061884;28;20053;-53
2021/11/25 00:48:53;;;;;;;37.35;21.60;;;;;;;2.55;100.00;95905.91;5053749;28;20052;-54
2021/11/25 00:51:21;;;;;;;37.33;20.35;;;;;;;2.34;100.00;95910.84;5057026;28;20041;-52
2021/11/25 00:53:51;;;;;;;37.38;20.38;;;;;;;2.21;100.00;95911.81;5062136;28;20052;-58
2021/11/25 00:56:19;;;;;;;38.80;22.83;;;;;;;2.54;100.00;95909.41;5062196;28;20083;-53
2021/11/25 00:58:48;;;;;;;39.92;22.55;;;;;;;2.36;100.00;95915.94;5061377;28;20515;-54
2021/11/25 01:01:17;;;;;;;36.35;21.45;;;;;;;1.93;100.00;95916.31;5060174;28;20503;-54
2021/11/25 01:03:45;;;;;;;39.00;21.88;;;;;;;2.28;100.00;95915.66;5068755;28;20047;-57
2021/11/25 01:06:14;;;;;;;41.63;23.80;;;;;;;2.49;100.00;95906.31;5064264;28;20068;-55
2021/11/25 01:08:42;;;;;;;43.17;23.20;;;;;;;2.29;100.00;95906.91;5059380;28;20427;-54
2021/11/25 01:11:12;;;;;;;40.85;23.17;;;;;;;2.45;100.00;95896.25;5069821;28;20064;-55
2021/11/25 01:13:41;;;;;;;45.58;23.73;;;;;;;2.56;100.00;95889.34;5069949;28;20053;-55
2021/11/25 01:16:10;;;;;;;44.05;23.55;;;;;;;2.93;100.00;95881.47;5057164;28;20076;-59
2021/11/25 01:18:40;;;;;;;38.55;21.67;;;;;;;3.51;100.00;95884.13;5063471;28;20060;-53
2021/11/25 01:21:08;;;;;;;36.70;20.83;;;;;;;3.23;100.00;95893.16;5061321;28;20048;-56
2021/11/25 01:23:36;;;;;;;36.97;21.35;;;;;;;2.60;100.00;95895.97;5056394;28;20071;-55
2021/11/25 01:26:05;;;;;;;35.53;20.15;;;;;;;2.47;100.00;95883.94;5060015;28;20119;-56
2021/11/25 01:28:35;;;;;;;39.03;21.67;;;;;;;2.12;100.00;95879.47;5060941;28;20398;-54
2021/11/25 01:31:03;;;;;;;39.70;23.08;;;;;;;2.11;100.00;95880.41;5047242;28;20041;-55
2021/11/25 01:33:33;;;;;;;36.65;21.58;;;;;;;2.12;100.00;95875.09;5064396;28;20040;-56
2021/11/25 01:36:02;;;;;;;37.03;20.02;;;;;;;2.60;100.00;95866.53;5066089;28;20095;-55
2021/11/25 01:38:31;;;;;;;39.88;20.38;;;;;;;2.31;100.00;95871.22;5060910;28;20029;-55
2021/11/25 01:41:00;;;;;;;37.50;20.95;;;;;;;2.48;100.00;95865.63;5062810;28;20477;-56
2021/11/25 01:43:29;;;;;;;35.55;19.45;;;;;;;2.17;100.00;95868.72;5045254;28;20033;-49
2021/11/25 01:45:59;;;;;;;32.35;19.25;;;;;;;2.19;100.00;95864.25;5063162;28;20037;-53
2021/11/25 01:48:27;;;;;;;36.58;19.17;;;;;;;2.43;100.00;95867.72;5063348;28;20080;-55
2021/11/25 01:50:56;;;;;;;36.85;19.13;;;;;;;2.23;100.00;95871.72;5059291;28;20405;-55
2021/11/25 01:53:24;;;;;;;34.35;19.45;;;;;;;2.76;100.00;95861.03;5058614;28;20402;-54
2021/11/25 01:55:53;;;;;;;35.45;19.27;;;;;;;2.21;100.00;95860.63;5044639;28;20048;-54
2021/11/25 01:58:22;;;;;;;36.08;18.88;;;;;;;2.73;100.00;95858.66;5061703;28;20446;-55
2021/11/25 02:00:53;;;;;;;35.17;20.05;;;;;;;2.88;100.00;95841.91;5059334;28;20079;-54
2021/11/25 02:03:26;;;;;;;37.30;20.17;;;;;;;2.18;100.00;95854.81;5057735;28;20091;-55
2021/11/25 02:05:55;;;;;;;34.55;18.40;;;;;;;2.38;100.00;95843.81;5060332;28;20040;-53
2021/11/25 02:08:24;;;;;;;35.28;19.20;;;;;;;2.87;100.00;95840.25;5065148;28;20080;-54
2021/11/25 02:10:54;;;;;;;34.83;19.20;;;;;;;2.88;100.00;95833.28;5061946;28;20041;-56
2021/11/25 02:13:23;;;;;;;30.52;17.27;;;;;;;2.41;100.00;95829.72;5057961;28;20067;-57
2021/11/25 02:15:53;;;;;;;35.65;18.65;;;;;;;2.50;100.00;95836.88;5057734;28;20403;-55
2021/11/25 02:18:24;;;;;;;36.63;19.60;;;;;;;2.76;100.00;95835.00;5060258;28;20044;-51
2021/11/25 02:20:57;;;;;;;36.20;18.25;;;;;;;2.66;100.00;95827.03;5057672;28;20479;-55
2021/11/25 02:23:26;;;;;;;34.00;19.00;;;;;;;3.29;100.00;95824.97;5056782;28;20044;-54
2021/11/25 02:25:55;;;;;;;35.30;19.10;;;;;;;2.57;100.00;95815.50;5064835;28;20033;-56
2021/11/25 02:28:24;;;;;;;33.88;17.05;;;;;;;2.14;100.00;95816.00;5049672;28;20045;-55
2021/11/25 02:30:53;;;;;;;34.58;17.40;;;;;;;2.46;100.00;95799.03;5051769;28;20428;-51
2021/11/25 02:33:22;;;;;;;34.28;18.83;;;;;;;2.53;100.00;95798.47;5063365;28;20044;-57
2021/11/25 02:35:50;;;;;;;34.33;18.35;;;;;;;2.49;100.00;95799.63;5061202;28;20064;-54
2021/11/25 02:38:20;;;;;;;33.75;20.15;;;;;;;2.33;100.00;95792.09;5064436;28;20970;-53
2021/11/25 02:40:51;;;;;;;35.50;18.48;;;;;;;3.00;100.00;95780.28;5041100;28;20077;-52
2021/11/25 02:43:24;;;;;;;37.10;18.17;;;;;;;2.75;100.00;95778.66;5055586;28;20482;-53
2021/11/25 02:45:54;;;;;;;34.45;18.63;;;;;;;2.71;100.00;95796.28;5058937;28;20045;-53
2021/11/25 02:48:25;;;;;;;34.63;19.45;;;;;;;2.55;100.00;95783.59;5054222;28;20613;-51
2021/11/25 02:50:55;;;;;;;34.88;18.95;;;;;;;2.82;100.00;95780.72;5051150;28;20070;-54
2021/11/25 02:53:26;;;;;;;36.20;18.83;;;;;;;2.83;100.00;95781.53;5046326;28;20067;-54
2021/11/25 02:55:56;;;;;;;33.95;18.77;;;;;;;3.08;100.00;95788.34;5056770;28;21059;-56
2021/11/25 02:58:24;;;;;;;36.85;19.05;;;;;;;2.59;100.00;95779.81;5052041;28;20076;-54
2021/11/25 03:00:55;;;;;;;36.05;18.85;;;;;;;2.45;100.00;95776.56;5058059;28;20067;-55
2021/11/25 03:03:24;;;;;;;34.30;18.65;;;;;;;2.59;100.00;95764.19;5057493;28;20575;-53
2021/11/25 03:05:53;;;;;;;33.88;18.13;;;;;;;2.71;100.00;95767.66;5065189;28;20041;-57
2021/11/25 03:08:23;;;;;;;36.40;19.50;;;;;;;3.00;100.00;95759.47;5058559;28;20056;-53
2021/11/25 03:10:53;;;;;;;33.78;19.27;;;;;;;3.14;100.00;95763.63;5058683;28;20546;-53
2021/11/25 03:13:23;;;;;;;34.30;18.13;;;;;;;3.58;100.00;95770.66;5062341;28;20155;-52
2021/11/25 03:15:52;;;;;;;33.95;18.83;;;;;;;3.74;100.00;95770.25;5036016;28;20241;-51
2021/11/25 03:18:22;;;;;;;31.00;18.00;;;;;;;3.68;100.00;95771.59;5053166;28;20447;-52
2021/11/25 03:20:52;;;;;;;31.65;18.23;;;;;;;3.64;100.00;95775.34;5060637;28;20065;-56
2021/11/25 03:23:25;;;;;;;34.65;18.27;;;;;;;2.93;100.00;95776.50;5059996;28;20096;-52
2021/11/25 03:25:54;;;;;;;38.75;19.55;;;;;;;3.23;100.00;95770.72;5056345;28;20096;-55
2021/11/25 03:28:22;;;;;;;36.80;18.95;;;;;;;2.93;100.00;95766.91;5053560;28;20068;-55
2021/11/25 03:30:55;;;;;;;33.50;18.85;;;;;;;2.91;100.00;95766.16;5056652;28;20433;-53
2021/11/25 03:33:25;;;;;;;33.80;19.15;;;;;;;3.03;100.00;95767.03;5054237;28;21321;-54
2021/11/25 03:35:54;;;;;;;34.53;18.85;;;;;;;3.18;100.00;95772.84;5052955;28;20064;-54
2021/11/25 03:38:24;;;;;;;34.47;18.55;;;;;;;3.48;100.00;95775.72;5061314;28;20079;-57
2021/11/25 03:40:53;;;;;;;34.72;18.40;;;;;;;3.12;100.00;95775.91;5060491;28;20083;-56
2021/11/25 03:43:22;;;;;;;40.40;19.88;;;;;;;2.76;100.00;95762.13;5057299;28;20072;-57
2021/11/25 03:45:51;;;;;;;33.55;17.58;;;;;;;2.53;100.00;95767.25;5062620;28;20076;-55
2021/11/25 03:48:22;;;;;;;32.05;18.58;;;;;;;2.43;100.00;95771.44;5055552;28;20518;-53
2021/11/25 03:50:50;;;;;;;;;;;;;;;2.35;100.00;95766.81;5054614;28;20060;-54
2021/11/25 03:53:18;;;;;;;35.00;18.75;;;;;;;2.90;100.00;95755.88;5053385;28;19975;-52
2021/11/25 03:55:48;;;;;;;35.97;18.90;;;;;;;3.15;100.00;95754.84;5044353;28;20079;-54
2021/11/25 03:58:17;;;;;;;34.80;18.63;;;;;;;3.39;100.00;95755.59;5061668;28;20073;-53
2021/11/25 04:00:46;;;;;;;38.08;18.52;;;;;;;2.94;100.00;95745.13;5061612;28;20471;-50
2021/11/25 04:03:14;;;;;;;34.15;17.85;;;;;;;3.48;100.00;95744.47;5056412;28;20079;-54
2021/11/25 04:05:43;;;;;;;33.47;18.17;;;;;;;3.66;100.00;95736.97;5059684;28;20063;-51
2021/11/25 04:08:12;;;;;;;32.92;18.05;;;;;;;3.32;100.00;95741.38;5059059;28;20140;-49
2021/11/25 04:10:40;;;;;;;34.85;19.65;;;;;;;2.52;100.00;95744.75;5062336;28;20063;-53
2021/11/25 04:13:11;;;;;;;31.25;17.45;;;;;;;3.34;100.00;95739.50;5058894;28;20068;-53
2021/11/25 04:15:39;;;;;;;34.25;18.33;;;;;;;2.81;100.00;95736.56;5056986;28;20040;-56
2021/11/25 04:18:08;;;;;;;33.65;18.48;;;;;;;2.67;100.00;95729.78;5061792;28;20075;-56
2021/11/25 04:20:37;;;;;;;31.95;18.15;;;;;;;2.66;100.00;95733.34;5063503;28;20068;-52
2021/11/25 04:23:06;;;;;;;38.92;19.95;;;;;;;2.55;100.00;95728.94;5062271;28;20462;-53
2021/11/25 04:25:39;;;;;;;33.75;18.27;;;;;;;2.70;100.00;95739.13;5059491;28;20726;-56
2021/11/25 04:28:08;;;;;;;34.05;19.13;;;;;;;2.84;100.00;95731.13;5059928;28;20086;-54
2021/11/25 04:30:53;;;;;;;34.38;19.10;;;;;;;2.66;100.00;95730.72;5057736;28;20057;-52
2021/11/25 04:36:07;;;;;;;34.33;19.52;;;;;;;2.24;100.00;95726.94;5058594;28;20569;-57
2021/11/25 04:38:36;;;;;;;33.75;18.23;;;;;;;2.31;100.00;95728.97;5055747;28;20068;-56
2021/11/25 04:41:04;;;;;;;34.22;18.08;;;;;;;2.37;100.00;95722.47;5054727;28;20577;-53
2021/11/25 04:43:33;;;;;;;35.35;19.02;;;;;;;2.39;100.00;95712.78;5060818;28;20762;-52
2021/11/25 04:46:05;;;;;;;34.63;19.08;;;;;;;2.91;100.00;95714.09;5058488;28;20068;-54
2021/11/25 04:48:34;;;;;;;35.63;18.45;;;;;;;3.15;100.00;95705.34;5056628;28;20071;-54
2021/11/25 04:51:02;;;;;;;36.55;19.13;;;;;;;2.57;100.00;95690.59;5051194;28;20052;-55
2021/11/25 04:53:31;;;;;;;33.85;18.30;;;;;;;2.31;100.00;95686.50;5044730;28;20079;-55
2021/11/25 04:56:00;;;;;;;35.63;18.35;;;;;;;2.49;100.00;95690.34;5062480;28;20091;-55
2021/11/25 04:58:29;;;;;;;36.03;19.92;;;;;;;2.65;100.00;95686.59;5054926;28;20072;-59
2021/11/25 05:00:58;;;;;;;34.93;19.03;;;;;;;2.08;100.00;95694.22;5048273;28;20064;-56
2021/11/25 05:03:28;;;;;;;35.00;18.27;;;;;;;2.30;100.00;95684.84;5058223;28;20983;-52
2021/11/25 05:05:57;;;;;;;34.85;17.50;;;;;;;2.83;100.00;95688.63;5054007;28;20076;-56
2021/11/25 05:08:25;;;;;;;32.90;18.05;;;;;;;2.01;100.00;95693.00;5053357;28;20080;-56
2021/11/25 05:10:53;;;;;;;30.60;16.70;;;;;;;2.85;100.00;95699.75;5060064;28;20099;-58
2021/11/25 05:13:22;;;;;;;33.90;17.55;;;;;;;2.89;100.00;95689.09;5047733;28;20064;-57
2021/11/25 05:15:50;;;;;;;30.65;16.48;;;;;;;3.16;100.00;95696.59;5052946;28;20076;-54
2021/11/25 05:18:19;;;;;;;31.40;17.10;;;;;;;2.27;100.00;95683.31;5060400;28;20071;-54
2021/11/25 05:20:49;;;;;;;29.67;16.35;;;;;;;2.90;100.00;95698.59;5045468;28;20150;-54
2021/11/25 05:23:17;;;;;;;32.28;17.30;;;;;;;2.69;100.00;95699.28;5049193;28;20075;-55
2021/11/25 05:25:46;;;;;;;31.75;16.60;;;;;;;2.95;100.00;95692.06;5033542;28;20056;-54
2021/11/25 05:28:14;;;;;;;34.47;17.10;;;;;;;2.47;100.00;95688.78;5063537;28;20734;-57
2021/11/25 05:30:43;;;;;;;30.90;16.25;;;;;;;3.12;100.00;95687.34;5060790;28;20064;-58
2021/11/25 05:33:11;;;;;;;32.72;18.02;;;;;;;2.41;100.00;95689.25;5057871;28;20060;-57
2021/11/25 05:35:41;;;;;;;34.05;17.27;;;;;;;2.90;100.00;95682.97;5060384;28;20064;-58
2021/11/25 05:38:11;;;;;;;31.53;17.20;;;;;;;3.05;100.00;95693.03;5055283;28;20089;-55
2021/11/25 05:40:39;;;;;;;35.75;18.98;;;;;;;2.70;100.00;95687.09;5060899;28;20521;-55
2021/11/25 05:43:08;;;;;;;31.38;16.13;;;;;;;2.92;100.00;95687.09;5048155;28;20045;-57
2021/11/25 05:45:36;;;;;;;32.72;18.15;;;;;;;2.88;100.00;95690.06;5053852;28;20144;-59
2021/11/25 05:48:05;;;;;;;36.05;17.75;;;;;;;3.19;100.00;95686.75;5060806;28;20537;-54
2021/11/25 05:50:34;;;;;;;32.00;18.23;;;;;;;2.72;100.00;95685.16;5052674;28;20087;-57
2021/11/25 05:53:02;;;;;;;38.58;18.15;;;;;;;2.95;100.00;95686.03;5062182;28;20091;-59
2021/11/25 05:55:34;;;;;;;36.75;17.90;;;;;;;3.25;100.00;95686.28;5054435;28;20195;-55
2021/11/25 05:58:03;;;;;;;31.88;17.80;;;;;;;3.03;100.00;95678.50;5057763;28;20072;-54
2021/11/25 06:00:31;;;;;;;32.58;17.60;;;;;;;2.84;100.00;95695.50;5059869;28;20071;-53
2021/11/25 06:03:00;;;;;;;30.27;17.77;;;;;;;2.37;100.00;95691.25;5053617;28;20045;-56
2021/11/25 06:05:28;;;;;;;31.98;17.88;;;;;;;2.44;100.00;95689.00;5057525;28;20072;-57
2021/11/25 06:07:59;;;;;;;35.00;17.15;;;;;;;2.47;100.00;95686.19;5057573;28;20485;-57
2021/11/25 06:10:27;;;;;;;39.92;18.98;;;;;;;2.43;100.00;95683.00;5055431;28;20187;-58
2021/11/25 06:12:58;;;;;;;35.10;18.65;;;;;;;2.78;100.00;95680.34;5056681;28;20086;-58
2021/11/25 06:15:27;;;;;;;39.20;18.65;;;;;;;2.36;100.00;95672.19;5055557;28;20543;-54
2021/11/25 06:17:56;;;;;;;37.42;19.33;;;;;;;2.19;100.00;95677.81;5059039;28;20068;-56
2021/11/25 06:20:24;;;;;;;32.45;17.10;;;;;;;2.31;100.00;95674.34;5055860;28;20095;-57
2021/11/25 06:22:54;;;;;;;40.15;19.08;;;;;;;2.12;100.00;95677.44;5061821;28;20072;-56
2021/11/25 06:25:24;;;;;;;36.60;17.83;;;;;;;2.52;100.00;95673.69;5052358;28;20060;-58
2021/11/25 06:27:53;;;;;;;36.35;17.35;;;;;;;2.66;100.00;95670.88;5056297;28;20111;-57
2021/11/25 06:30:23;;;;;;;36.60;19.40;;;;;;;3.20;100.00;95667.59;5059402;28;20069;-56
2021/11/25 06:32:52;;;;;;;37.97;20.25;;;;;;;3.04;100.00;95667.94;5052570;28;20482;-54
2021/11/25 06:35:22;;;;;;;39.47;21.42;;;;;;;3.15;100.00;95666.28;5055108;28;20076;-55
2021/11/25 06:37:52;;;;;;;35.10;19.13;;;;;;;3.11;100.00;95675.28;5062050;28;20104;-58
2021/11/25 06:40:25;;;;;;;37.97;18.47;;;;;;;3.10;100.00;95674.47;5056536;28;20720;-58
2021/11/25 06:42:54;;;;;;;35.55;18.42;;;;;;;2.82;100.00;95680.94;5059304;28;20498;-55
2021/11/25 06:45:25;;;;;;;36.00;19.92;;;;;;;2.55;100.00;95674.28;5061871;28;20078;-57
2021/11/25 06:47:55;;;;;;;35.38;18.70;;;;;;;2.69;100.00;95682.81;5053252;28;20072;-58
2021/11/25 06:50:26;;;;;;;37.28;18.60;;;;;;;2.95;100.00;95680.84;5058227;28;20095;-58
2021/11/25 06:52:54;;;;;;;35.53;17.85;;;;;;;2.47;100.00;95681.81;5057109;28;20464;-59
2021/11/25 06:55:22;;;;;;;34.47;18.10;;;;;;;2.14;100.00;95685.16;5056828;28;20087;-58
2021/11/25 06:57:51;;;;;;;33.15;18.20;;;;;;;2.33;100.00;95692.41;5047503;28;20073;-55
2021/11/25 07:00:22;;;;;;;31.67;17.83;;;;;;;2.35;100.00;95680.97;5045834;28;20475;-59
2021/11/25 07:02:53;;;;;;;38.03;18.20;;;;;;;2.17;100.00;95684.94;5053798;28;20078;-55
2021/11/25 07:05:24;;;;;;;35.67;18.42;;;;;;;2.79;100.00;95695.03;5045651;28;20084;-58
2021/11/25 07:07:53;;;;;;;34.75;17.38;;;;;;;3.20;100.00;95690.19;5047778;28;20087;-57
2021/11/25 07:10:22;;;;;;;38.67;17.98;;;;;;;2.78;100.00;95684.72;5062838;28;20518;-56
2021/11/25 07:12:50;;;;;;;36.67;18.92;;;;;;;2.83;100.00;95678.22;5065312;28;20068;-58
2021/11/25 07:15:20;;;;;;;34.00;17.48;;;;;;;3.11;100.00;95673.50;5053356;28;20534;-56
2021/11/25 07:17:49;;;;;;;38.83;18.02;;;;;;;2.37;100.00;95673.88;5052432;28;20594;-59
2021/11/25 07:20:19;;;;;;;34.40;17.80;;;;;;;3.05;100.00;95681.78;5063125;28;20076;-56
2021/11/25 07:22:48;;;;;;;34.72;18.33;;;;;;;2.69;100.00;95685.44;5066279;28;20076;-55
2021/11/25 07:25:18;;;;;;;34.25;17.80;;;;;;;2.49;100.00;95674.72;5051797;28;20069;-56
2021/11/25 07:27:46;;;;;;;34.97;17.80;;;;;;;2.29;100.00;95673.59;5045330;28;20073;-57
2021/11/25 07:30:17;;;;;;;37.72;17.65;;;;;;;2.22;100.00;95669.78;5059729;28;20075;-56
2021/11/25 07:32:46;;;;;;;34.63;17.80;;;;;;;2.99;100.00;95677.03;5062011;28;20397;-55
2021/11/25 07:35:17;;;;;;;34.13;18.08;;;;;;;2.81;100.00;95684.50;5062695;28;20072;-52
2021/11/25 07:37:48;;;;;;;33.30;17.67;;;;;;;2.94;100.00;95689.59;5061022;28;20084;-59
2021/11/25 07:40:16;;;;;;;33.45;17.92;;;;;;;2.57;100.00;95690.59;5059104;28;20065;-56
2021/11/25 07:42:45;;;;;;;37.13;18.55;;;;;;;3.21;100.00;95691.88;5051559;28;20072;-56
2021/11/25 07:45:13;;;;;;;33.95;18.08;;;;;;;2.50;100.00;95685.97;5048674;28;20080;-58
2021/11/25 07:47:43;;;;;;;32.38;17.10;;;;;;;2.77;100.00;95689.09;5053427;28;20799;-56
2021/11/25 07:50:14;;;;;;;35.13;17.60;;;;;;;2.94;100.00;95680.00;5048134;28;20060;-56
2021/11/25 07:52:43;;;;;;;29.50;16.40;;;;;;;3.10;100.00;95674.47;5055216;28;20090;-54
2021/11/25 07:55:15;;;;;;;31.25;17.13;;;;;;;3.22;100.00;95668.28;5059833;28;20656;-54
2021/11/25 07:57:44;;;;;;;35.63;16.80;;;;;;;3.37;100.00;95657.63;5051695;28;20152;-55
2021/11/25 08:00:14;;;;;;;32.95;16.80;;;;;;;3.71;100.00;95643.56;5056637;28;20068;-60
2021/11/25 08:02:43;;;;;;;33.08;17.58;;;;;;;3.83;100.00;95640.94;5051134;28;20708;-55
2021/11/25 08:05:12;;;;;;;34.13;18.13;;;;;;;3.51;100.00;95641.72;5053887;28;20083;-60
2021/11/25 08:07:42;;;;;;;39.17;19.75;;;;;;;3.35;100.00;95636.09;5065012;28;20083;-56
2021/11/25 08:10:13;;;;;;;34.88;19.55;;;;;;;3.47;100.00;95629.88;5051472;28;20151;-55
2021/11/25 08:12:42;;;;;;;36.40;18.80;;;;;;;3.53;100.00;95626.78;5059503;28;20068;-55
2021/11/25 08:15:12;;;;;;;33.60;17.23;;;;;;;3.96;100.00;95616.38;5050245;28;20064;-53
2021/11/25 08:17:41;;;;;;;33.47;18.27;;;;;;;4.07;100.00;95627.69;5060298;28;20071;-57
2021/11/25 08:20:11;;;;;;;34.53;18.38;;;;;;;3.47;100.00;95632.50;5052858;28;20084;-52
2021/11/25 08:22:40;;;;;;;;;;;;;;;3.51;100.00;95639.97;5060801;28;20110;-54
2021/11/25 08:25:09;;;;;;;33.58;16.80;;;;;;;3.28;100.00;95644.38;5054423;28;19995;-55
2021/11/25 08:27:39;;;;;;;31.95;17.45;;;;;;;3.77;100.00;95624.84;5057474;28;20084;-54
2021/11/25 08:30:11;;;;;;;37.90;17.92;;;;;;;4.03;100.00;95632.34;5056163;28;20068;-58
2021/11/25 08:32:40;;;;;;;35.35;18.58;;;;;;;3.79;100.00;95628.16;5050922;28;20125;-55
2021/11/25 08:35:09;;;;;;;32.30;18.52;;;;;;;3.56;100.00;95632.59;5058108;28;20091;-55
2021/11/25 08:37:39;;;;;;;33.22;17.48;;;;;;;3.96;100.00;95633.78;5058018;28;20690;-54
2021/11/25 08:40:09;;;;;;;35.22;19.17;;;;;;;3.25;100.00;95646.38;5054304;28;20079;-57
2021/11/25 08:42:39;;;;;;;33.55;17.83;;;;;;;2.98;100.00;95650.19;5047501;28;20570;-58
2021/11/25 08:45:09;;;;;;;36.38;19.15;;;;;;;3.62;100.00;95654.75;5053626;28;20135;-60
2021/11/25 08:47:37;;;;;;;32.55;18.30;;;;;;;3.93;100.00;95644.47;5052526;28;20080;-59
2021/11/25 08:50:07;;;;;;;35.65;19.33;;;;;;;3.55;100.00;95645.75;5060767;28;20534;-55
2021/11/25 08:52:36;;;;;;;35.95;18.10;;;;;;;3.63;100.00;95656.41;5054548;28;20100;-60
2021/11/25 08:55:05;;;;;;;34.90;20.60;;;;;;;3.74;100.00;95650.31;5048710;28;20091;-59
2021/11/25 08:57:34;;;;;;;34.28;17.75;;;;;;;4.15;100.00;95646.97;5054165;28;20084;-57
2021/11/25 09:00:06;;;;;;;34.00;18.35;;;;;;;4.40;100.00;95651.00;5055182;28;20068;-56
2021/11/25 09:02:36;;;;;;;33.95;18.02;;;;;;;4.57;100.00;95654.84;5063583;28;20064;-57
2021/11/25 09:05:06;;;;;;;35.35;18.60;;;;;;;4.12;100.00;95662.88;5055756;28;20091;-58
2021/11/25 09:07:35;;;;;;;33.60;18.92;;;;;;;4.13;100.00;95667.16;5063610;28;20084;-53
2021/11/25 09:10:04;;;;;;;30.55;17.95;;;;;;;3.91;100.00;95657.63;5061990;28;20083;-57
2021/11/25 09:12:32;;;;;;;32.58;16.67;;;;;;;3.78;100.00;95649.13;5061140;28;20482;-55
2021/11/25 09:15:17;;;;;;;29.00;16.35;;;;;;;4.13;100.00;95648.06;5054364;28;20061;-58
2021/11/25 09:17:45;;;;;;;30.77;16.75;;;;;;;3.96;100.00;95654.66;5055026;28;20504;-58
2021/11/25 09:20:27;;;;;;;34.35;17.92;;;;;;;4.08;100.00;95655.44;5063363;28;20624;-59
2021/11/25 09:22:55;;;;;;;32.55;17.73;;;;;;;3.53;100.00;95656.28;5064396;28;20102;-53
2021/11/25 09:25:24;;;;;;;33.42;18.00;;;;;;;3.67;100.00;95662.19;5059099;28;20076;-59
2021/11/25 09:27:52;;;;;;;28.98;16.23;;;;;;;3.40;100.00;95668.63;5059961;28;20036;-57
2021/11/25 09:30:22;;;;;;;31.33;16.85;;;;;;;3.99;100.00;95659.59;5053586;28;20094;-53
2021/11/25 09:32:51;;;;;;;33.00;17.58;;;;;;;4.22;100.00;95658.56;5053793;28;20080;-56
2021/11/25 09:35:20;;;;;;;32.28;17.55;;;;;;;4.66;100.00;95648.84;5060179;28;20080;-57
2021/11/25 09:37:49;;;;;;;31.38;17.02;;;;;;;4.45;100.00;95643.63;5056910;28;20084;-56
2021/11/25 09:40:22;;;;;;;32.33;17.27;;;;;;;3.89;100.00;95654.31;5063818;28;20080;-51
2021/11/25 09:42:52;;;;;;;32.90;17.25;;;;;;;3.92;100.00;95666.28;5054093;28;20486;-55
2021/11/25 09:45:23;;;;;;;32.60;17.13;;;;;;;3.74;100.00;95665.97;5066176;28;20052;-56
2021/11/25 09:47:55;;;;;;;34.78;18.35;;;;;;;4.26;100.00;95664.38;5059993;28;20068;-57
2021/11/25 09:50:26;;;;;;;34.85;17.63;;;;;;;4.17;100.00;95665.13;5059278;28;20138;-58
2021/11/25 09:52:57;;;;;;;34.10;17.13;;;;;;;4.13;100.00;95659.34;5065507;28;20064;-56
2021/11/25 09:55:25;;;;;;;33.80;17.45;;;;;;;4.68;100.00;95660.00;5056509;28;20079;-56
2021/11/25 09:57:54;;;;;;;33.10;18.02;;;;;;;4.63;100.00;95658.72;5051070;28;20650;-55
2021/11/25 10:00:27;;;;;;;28.25;15.20;;;;;;;4.33;100.00;95655.06;5059983;28;20070;-59
2021/11/25 10:02:57;;;;;;;32.65;17.23;;;;;;;3.64;100.00;95657.22;5056236;28;20068;-56
2021/11/25 10:05:25;;;;;;;29.73;15.75;;;;;;;4.33;100.00;95647.25;5052067;28;20084;-55
2021/11/25 10:07:54;;;;;;;31.38;17.40;;;;;;;4.53;100.00;95646.44;5055605;28;20088;-56
2021/11/25 10:10:26;;;;;;;30.10;17.48;;;;;;;4.29;100.00;95644.06;5061897;28;20076;-59
2021/11/25 10:12:58;;;;;;;28.33;15.75;;;;;;;4.16;100.00;95639.97;5054842;28;20078;-57
2021/11/25 10:15:32;;;;;;;31.95;17.42;;;;;;;4.27;100.00;95648.59;5058981;28;20071;-56
2021/11/25 10:18:03;;;;;;;31.42;16.98;;;;;;;4.21;100.00;95637.84;5053725;28;20464;-59
2021/11/25 10:20:34;;;;;;;28.55;16.05;;;;;;;4.22;100.00;95647.31;5052252;28;20611;-55
2021/11/25 10:23:21;;;;;;;28.98;15.93;;;;;;;4.75;100.00;95639.44;5058380;28;20084;-58
2021/11/25 10:25:55;;;;;;;30.25;16.35;;;;;;;5.07;100.00;95643.72;5050937;28;20382;-55
2021/11/25 10:28:28;;;;;;;29.17;16.17;;;;;;;4.90;100.00;95632.91;5048998;28;20084;-54
2021/11/25 10:31:01;;;;;;;30.63;16.90;;;;;;;4.58;100.00;95632.19;5049585;28;20072;-55
2021/11/25 10:33:33;;;;;;;29.10;16.80;;;;;;;5.04;100.00;95623.06;5052561;28;20080;-58
2021/11/25 10:36:16;;;;;;;29.77;17.00;;;;;;;4.72;100.00;95622.22;5056289;28;20061;-56
2021/11/25 10:39:00;;;;;;;28.13;16.33;;;;;;;4.64;100.00;95605.53;5056079;28;20060;-57
2021/11/25 10:41:30;;;;;;;29.90;17.17;;;;;;;4.59;100.00;95603.31;5049842;28;20512;-53
2021/11/25 10:44:11;;;;;;;30.60;16.58;;;;;;;4.66;100.00;95601.84;5055275;28;20053;-56
2021/11/25 10:46:44;;;;;;;33.30;16.70;;;;;;;4.55;100.00;95586.28;5052157;28;20337;-59
2021/11/25 10:49:14;;;;;;;30.98;16.95;;;;;;;3.89;100.00;95593.50;5034584;28;20080;-56
2021/11/25 10:51:44;;;;;;;27.98;16.45;;;;;;;4.73;100.00;95595.16;5052968;28;20064;-59
2021/11/25 10:54:15;;;;;;;28.88;16.73;;;;;;;4.63;100.00;95586.44;5054117;28;20072;-55
2021/11/25 10:56:46;;;;;;;29.13;16.10;;;;;;;4.70;100.00;95587.56;5054121;28;20064;-58
2021/11/25 10:59:18;;;;;;;31.00;15.80;;;;;;;4.27;100.00;95590.38;5058159;28;20111;-56
2021/11/25 11:01:50;;;;;;;30.83;16.63;;;;;;;4.66;100.00;95580.13;5053832;28;20080;-57
2021/11/25 11:04:22;;;;;;;30.48;16.17;;;;;;;4.95;100.00;95583.69;5052185;28;20068;-58
2021/11/25 11:06:55;;;;;;;30.23;16.50;;;;;;;4.89;100.00;95580.81;5051422;28;20033;-53
2021/11/25 11:09:33;;;;;;;31.40;17.05;;;;;;;4.92;100.00;95580.50;5058857;28;20076;-57
2021/11/25 11:12:26;;;;;;;27.05;15.43;;;;;;;4.51;100.00;95582.25;5054054;28;20067;-57
2021/11/25 11:14:56;;;;;;;31.35;16.65;;;;;;;5.07;100.00;95573.97;5051795;28;20060;-59
2021/11/25 11:17:32;;;;;;;28.77;15.73;;;;;;;4.82;100.00;95575.28;5053873;28;20087;-56
2021/11/25 11:20:15;;;;;;;31.08;17.88;;;;;;;5.13;100.00;95565.63;5061247;28;20093;-58
2021/11/25 11:22:51;;;;;;;33.78;16.25;;;;;;;5.22;100.00;95563.97;5045001;28;20220;-58
2021/11/25 11:25:22;;;;;;;32.05;16.92;;;;;;;5.06;100.00;95564.50;5058028;28;20071;-57
2021/11/25 11:27:53;;;;;;;30.75;16.52;;;;;;;4.69;100.00;95556.38;5052684;28;20071;-56
2021/11/25 11:30:21;;;;;;;;;;;;;;;4.61;100.00;95557.03;5060860;28;20087;-55
2021/11/25 11:32:51;;;;;;;27.80;15.23;;;;;;;4.49;100.00;95571.13;5052632;28;19960;-57